createdAt,value
2017-07-04T00:02:09.858Z,79.80
2017-07-04T00:04:37.396Z,81.30
2017-07-04T00:07:04.894Z,81.00
2017-07-04T00:09:32.427Z,81.70
2017-07-04T00:11:59.933Z,83.00
2017-07-04T00:14:28.186Z,81.60
2017-07-04T00:16:55.672Z,81.60
2017-07-04T00:19:23.936Z,82.30
2017-07-04T00:21:52.259Z,82.00
2017-07-04T00:24:19.761Z,81.20
2017-07-04T00:26:47.277Z,81.10
2017-07-04T00:29:14.786Z,82.10
2017-07-04T00:31:43.050Z,80.90
2017-07-04T00:34:10.535Z,80.80
2017-07-04T00:36:38.791Z,81.90
2017-07-04T00:39:06.269Z,81.90
2017-07-04T00:41:33.765Z,80.80
2017-07-04T00:44:01.232Z,81.40
2017-07-04T00:46:28.712Z,82.90
2017-07-04T00:48:56.218Z,82.00
2017-07-04T00:51:23.757Z,82.50
2017-07-04T00:53:52.016Z,82.40
2017-07-04T00:56:19.501Z,82.40
2017-07-04T00:58:46.982Z,82.20
2017-07-04T01:01:14.504Z,83.20
2017-07-04T01:03:42.777Z,82.70
2017-07-04T01:06:11.041Z,81.70
2017-07-04T01:08:38.516Z,81.70
2017-07-04T01:11:06.772Z,83.60
2017-07-04T01:13:34.277Z,83.50
2017-07-04T01:16:01.790Z,84.40
2017-07-04T01:18:29.293Z,85.20
2017-07-04T01:20:56.808Z,82.80
2017-07-04T01:23:25.053Z,84.00
2017-07-04T01:25:52.605Z,83.50
2017-07-04T01:28:20.097Z,81.80
2017-07-04T01:30:47.609Z,80.40
2017-07-04T01:33:15.115Z,82.10
2017-07-04T01:35:42.609Z,80.80
2017-07-04T01:38:10.125Z,81.30
2017-07-04T01:40:37.605Z,79.90
2017-07-04T01:43:05.880Z,79.70
2017-07-04T01:45:34.129Z,80.90
2017-07-04T01:48:01.625Z,80.20
2017-07-04T01:50:29.897Z,78.20
2017-07-04T01:52:58.156Z,78.80
2017-07-04T01:55:25.639Z,78.80
2017-07-04T01:57:53.932Z,77.20
2017-07-04T02:00:21.446Z,77.20
2017-07-04T02:02:48.949Z,77.10
2017-07-04T02:05:16.434Z,76.80
2017-07-04T02:07:43.922Z,76.70
2017-07-04T02:10:11.408Z,76.10
2017-07-04T02:12:39.276Z,76.10
2017-07-04T02:15:06.769Z,75.40
2017-07-04T02:17:34.258Z,76.50
2017-07-04T02:20:01.753Z,75.90
2017-07-04T02:22:30.005Z,75.40
2017-07-04T02:24:57.500Z,75.40
2017-07-04T02:27:24.986Z,76.60
2017-07-04T02:29:52.489Z,77.60
2017-07-04T02:32:20.764Z,76.50
2017-07-04T02:34:49.008Z,76.60
2017-07-04T02:37:16.495Z,76.50
2017-07-04T02:39:43.993Z,79.70
2017-07-04T02:42:11.459Z,78.70
2017-07-04T02:44:38.961Z,77.90
2017-07-04T02:47:06.449Z,77.20
2017-07-04T02:49:33.917Z,77.80
2017-07-04T02:52:01.409Z,76.90
2017-07-04T02:54:28.912Z,76.80
2017-07-04T02:56:57.156Z,76.50
2017-07-04T02:59:24.632Z,77.30
2017-07-04T03:01:52.128Z,77.20
2017-07-04T03:04:19.597Z,76.30
2017-07-04T03:06:47.084Z,77.50
2017-07-04T03:09:14.580Z,77.30
2017-07-04T03:11:42.057Z,77.20
2017-07-04T03:14:09.569Z,77.80
2017-07-04T03:16:37.064Z,77.80
2017-07-04T03:19:04.575Z,78.30
2017-07-04T03:21:32.073Z,78.60
2017-07-04T03:23:59.555Z,78.40
2017-07-04T03:26:27.042Z,78.70
2017-07-04T03:28:54.520Z,79.20
2017-07-04T03:31:22.034Z,78.90
2017-07-04T03:33:50.346Z,79.50
2017-07-04T03:36:17.833Z,79.00
2017-07-04T03:38:45.351Z,80.50
2017-07-04T03:41:12.831Z,81.30
2017-07-04T03:43:40.388Z,81.50
2017-07-04T03:46:07.867Z,82.00
2017-07-04T03:48:35.371Z,81.60
2017-07-04T03:51:02.848Z,82.10
2017-07-04T03:53:30.348Z,82.70
2017-07-04T03:55:57.849Z,82.20
2017-07-04T03:58:25.448Z,82.00
2017-07-04T04:00:52.948Z,81.70
2017-07-04T04:03:21.213Z,80.10
2017-07-04T04:05:48.686Z,80.10
2017-07-04T04:08:16.956Z,80.30
2017-07-04T04:10:45.235Z,79.70
2017-07-04T04:13:12.761Z,79.50
2017-07-04T04:15:40.269Z,79.50
2017-07-04T04:18:08.540Z,78.70
2017-07-04T04:20:36.784Z,79.00
2017-07-04T04:23:04.323Z,79.00
2017-07-04T04:25:31.826Z,79.40
2017-07-04T04:28:00.151Z,78.00
2017-07-04T04:30:27.678Z,77.90
2017-07-04T04:32:55.166Z,78.00
2017-07-04T04:35:22.657Z,78.10
2017-07-04T04:37:50.144Z,78.20
2017-07-04T04:40:17.610Z,77.30
2017-07-04T04:42:45.906Z,76.80
2017-07-04T04:45:13.391Z,76.60
2017-07-04T04:47:40.919Z,76.80
2017-07-04T04:50:08.416Z,76.90
2017-07-04T04:52:37.505Z,77.30
2017-07-04T04:55:05.005Z,77.20
2017-07-04T04:57:32.501Z,76.40
2017-07-04T05:00:00.001Z,75.40
2017-07-04T05:02:27.505Z,75.40
2017-07-04T05:04:55.026Z,75.30
2017-07-04T05:07:22.504Z,75.10
2017-07-04T05:09:50.756Z,74.50
2017-07-04T05:12:18.261Z,74.50
2017-07-04T05:14:45.744Z,74.70
2017-07-04T05:17:13.217Z,74.30
2017-07-04T05:19:40.753Z,74.80
2017-07-04T05:22:08.223Z,74.50
2017-07-04T05:24:35.722Z,73.90
2017-07-04T05:27:03.972Z,74.50
2017-07-04T05:29:31.469Z,73.70
2017-07-04T05:31:59.712Z,72.50
2017-07-04T05:34:27.186Z,72.50
2017-07-04T05:36:54.682Z,71.50
2017-07-04T05:39:22.154Z,71.30
2017-07-04T05:41:49.650Z,71.50
2017-07-04T05:44:17.127Z,70.70
2017-07-04T05:46:45.366Z,71.50
2017-07-04T05:49:12.853Z,71.50
2017-07-04T05:51:41.097Z,70.10
2017-07-04T05:54:08.590Z,69.80
2017-07-04T05:56:36.838Z,70.00
2017-07-04T05:59:04.336Z,70.70
2017-07-04T06:01:32.581Z,69.20
2017-07-04T06:04:00.056Z,69.20
2017-07-04T06:06:28.321Z,70.20
2017-07-04T06:08:55.829Z,70.20
2017-07-04T06:11:23.329Z,69.30
2017-07-04T06:13:50.794Z,69.00
2017-07-04T06:16:18.264Z,67.80
2017-07-04T06:18:46.535Z,67.10
2017-07-04T06:21:14.784Z,67.20
2017-07-04T06:23:42.288Z,66.80
2017-07-04T06:26:10.577Z,67.30
2017-07-04T06:28:38.058Z,67.20
2017-07-04T06:31:05.582Z,65.90
2017-07-04T06:33:33.821Z,66.40
2017-07-04T06:36:01.321Z,66.40
2017-07-04T06:38:29.629Z,67.10
2017-07-04T06:40:57.137Z,67.10
2017-07-04T06:43:24.622Z,67.60
2017-07-04T06:45:52.124Z,68.20
2017-07-04T06:48:19.608Z,68.00
2017-07-04T06:50:47.083Z,68.60
2017-07-04T06:53:15.396Z,68.90
2017-07-04T06:55:42.882Z,68.80
2017-07-04T06:58:10.350Z,67.80
2017-07-04T07:00:37.869Z,64.70
2017-07-04T07:03:05.381Z,63.00
2017-07-04T07:05:32.862Z,60.10
2017-07-04T07:08:01.163Z,56.50
2017-07-04T07:10:28.637Z,56.50
2017-07-04T07:12:56.165Z,54.60
2017-07-04T07:15:23.640Z,53.70
2017-07-04T07:17:51.163Z,52.10
2017-07-04T07:20:19.409Z,49.70
2017-07-04T07:22:46.872Z,49.70
2017-07-04T07:25:14.363Z,51.10
2017-07-04T07:27:42.606Z,48.10
2017-07-04T07:30:10.088Z,48.10
2017-07-04T07:32:38.357Z,48.70
2017-07-04T07:35:06.592Z,46.10
2017-07-04T07:37:34.106Z,45.70
2017-07-04T07:40:02.343Z,46.80
2017-07-04T07:42:29.837Z,46.80
2017-07-04T07:44:58.072Z,47.70
2017-07-04T07:47:25.574Z,47.80
2017-07-04T07:49:53.079Z,46.70
2017-07-04T07:52:20.576Z,44.60
2017-07-04T07:54:48.067Z,46.20
2017-07-04T07:57:15.572Z,47.70
2017-07-04T07:59:43.065Z,45.40
2017-07-04T08:02:10.563Z,45.20
2017-07-04T08:04:38.035Z,43.60
2017-07-04T08:07:05.528Z,45.10
2017-07-04T08:09:33.793Z,46.80
2017-07-04T08:12:01.299Z,46.80
2017-07-04T08:14:28.774Z,45.20
2017-07-04T08:16:56.262Z,43.20
2017-07-04T08:19:23.741Z,40.60
2017-07-04T08:21:51.996Z,44.40
2017-07-04T08:24:19.489Z,44.30
2017-07-04T08:26:46.998Z,41.50
2017-07-04T08:29:14.474Z,40.30
2017-07-04T08:31:41.948Z,39.20
2017-07-04T08:34:09.453Z,40.90
2017-07-04T08:36:36.926Z,41.60
2017-07-04T08:39:05.181Z,40.40
2017-07-04T08:41:32.684Z,40.30
2017-07-04T08:44:00.164Z,40.60
2017-07-04T08:46:27.656Z,41.50
2017-07-04T08:48:55.141Z,41.80
2017-07-04T08:51:23.403Z,43.80
2017-07-04T08:53:50.913Z,43.70
2017-07-04T08:56:18.405Z,42.70
2017-07-04T08:58:45.930Z,43.10
2017-07-04T09:01:13.422Z,43.70
2017-07-04T09:03:40.895Z,40.40
2017-07-04T09:06:08.377Z,38.40
2017-07-04T09:08:36.628Z,38.50
2017-07-04T09:11:04.109Z,38.50
2017-07-04T09:13:32.374Z,37.80
2017-07-04T09:16:00.615Z,41.80
2017-07-04T09:18:28.133Z,41.50
2017-07-04T09:20:55.662Z,44.40
2017-07-04T09:23:23.149Z,43.40
2017-07-04T09:25:50.623Z,40.50
2017-07-04T09:28:18.122Z,42.30
2017-07-04T09:30:45.608Z,44.10
2017-07-04T09:33:13.865Z,44.10
2017-07-04T09:35:41.355Z,44.10
2017-07-04T09:38:08.854Z,44.80
2017-07-04T09:40:36.340Z,38.20
2017-07-04T09:43:03.850Z,35.30
2017-07-04T09:45:31.346Z,35.00
2017-07-04T09:47:58.819Z,36.50
2017-07-04T09:50:26.326Z,33.50
2017-07-04T09:52:53.798Z,32.90
2017-07-04T09:55:21.310Z,33.30
2017-07-04T09:57:49.566Z,34.10
2017-07-04T10:00:17.045Z,34.20
2017-07-04T10:02:45.295Z,34.60
2017-07-04T10:05:12.791Z,34.50
2017-07-04T10:07:40.280Z,35.70
2017-07-04T10:10:07.765Z,37.80
2017-07-04T10:12:35.260Z,38.10
2017-07-04T10:15:02.725Z,39.40
2017-07-04T10:17:30.204Z,40.00
2017-07-04T10:19:57.702Z,40.30
2017-07-04T10:22:25.182Z,38.30
2017-07-04T10:24:53.468Z,33.70
2017-07-04T10:27:20.952Z,33.50
2017-07-04T10:29:48.428Z,31.90
2017-07-04T10:32:15.922Z,31.50
2017-07-04T10:34:44.163Z,28.60
2017-07-04T10:37:12.496Z,28.90
2017-07-04T10:39:39.973Z,28.50
2017-07-04T10:42:07.452Z,27.00
2017-07-04T10:44:34.939Z,28.20
2017-07-04T10:47:02.408Z,29.80
2017-07-04T10:49:30.681Z,28.90
2017-07-04T10:51:58.925Z,28.20
2017-07-04T10:54:26.416Z,27.70
2017-07-04T10:56:54.687Z,29.40
2017-07-04T10:59:22.159Z,29.30
2017-07-04T11:01:50.426Z,30.00
2017-07-04T11:04:18.666Z,30.40
2017-07-04T11:06:46.152Z,30.40
2017-07-04T11:09:13.618Z,31.40
2017-07-04T11:11:41.870Z,29.60
2017-07-04T11:14:09.369Z,29.50
2017-07-04T11:16:37.606Z,32.40
2017-07-04T11:19:05.084Z,32.40
2017-07-04T11:21:33.345Z,35.90
2017-07-04T11:24:00.873Z,35.20
2017-07-04T11:26:28.371Z,34.40
2017-07-04T11:28:55.886Z,35.50
2017-07-04T11:31:23.373Z,36.20
2017-07-04T11:33:50.902Z,40.20
2017-07-04T11:36:18.408Z,40.80
2017-07-04T11:38:45.894Z,41.30
2017-07-04T11:41:14.178Z,39.30
2017-07-04T11:43:41.635Z,39.30
2017-07-04T11:46:09.125Z,38.90
2017-07-04T11:48:36.626Z,40.00
2017-07-04T11:51:04.098Z,40.50
2017-07-04T11:53:32.357Z,41.00
2017-07-04T11:55:59.841Z,41.10
2017-07-04T11:58:27.326Z,40.90
2017-07-04T12:00:54.825Z,39.50
2017-07-04T12:03:22.321Z,39.00
2017-07-04T12:05:49.808Z,37.40
2017-07-04T12:08:17.293Z,38.60
2017-07-04T12:10:44.765Z,37.90
2017-07-04T12:13:13.027Z,42.10
2017-07-04T12:15:40.518Z,42.00
2017-07-04T12:18:08.771Z,40.50
2017-07-04T12:20:36.269Z,40.50
2017-07-04T12:23:03.788Z,40.40
2017-07-04T12:25:31.297Z,41.60
2017-07-04T12:27:58.777Z,41.10
2017-07-04T12:30:26.277Z,41.70
2017-07-04T12:32:54.517Z,40.30
2017-07-04T12:35:22.036Z,40.30
2017-07-04T12:37:49.506Z,38.90
2017-07-04T12:40:16.997Z,39.00
2017-07-04T12:42:44.469Z,37.70
2017-07-04T12:45:11.957Z,36.90
2017-07-04T13:00:41.446Z,39.30
2017-07-04T13:06:39.882Z,38.10
2017-07-04T13:09:07.376Z,36.80
2017-07-04T13:11:35.795Z,38.70
2017-07-04T13:14:03.266Z,38.70
2017-07-04T13:16:30.751Z,43.00
2017-07-04T13:18:58.237Z,41.10
2017-07-04T13:21:26.497Z,40.00
2017-07-04T13:23:53.985Z,40.00
2017-07-04T13:26:21.485Z,40.50
2017-07-04T13:28:48.983Z,41.80
2017-07-04T13:31:17.225Z,40.50
2017-07-04T13:33:44.694Z,40.50
2017-07-04T13:36:12.185Z,39.20
2017-07-04T13:38:40.434Z,38.30
2017-07-04T13:41:07.935Z,38.20
2017-07-04T13:43:35.423Z,37.20
2017-07-04T13:46:02.908Z,36.40
2017-07-04T13:48:30.376Z,37.40
2017-07-04T13:50:58.621Z,38.70
2017-07-04T13:53:26.124Z,38.50
2017-07-04T13:55:54.361Z,38.10
2017-07-04T13:58:21.841Z,38.10
2017-07-04T14:00:49.314Z,37.20
2017-07-04T14:03:17.585Z,37.60
2017-07-04T14:05:45.965Z,37.30
2017-07-04T14:08:14.200Z,37.60
2017-07-04T14:10:41.694Z,37.60
2017-07-04T14:13:09.947Z,35.90
2017-07-04T14:15:37.450Z,35.70
2017-07-04T14:18:04.931Z,36.80
2017-07-04T14:20:32.442Z,36.50
2017-07-04T14:23:00.704Z,38.40
2017-07-04T14:25:28.210Z,38.30
2017-07-04T14:27:55.707Z,37.90
2017-07-04T14:30:23.205Z,38.20
2017-07-04T14:32:51.486Z,38.20
2017-07-04T14:35:19.745Z,37.70
2017-07-04T14:37:47.219Z,37.60
2017-07-04T14:40:15.472Z,38.50
2017-07-04T14:42:42.951Z,38.50
2017-07-04T14:45:11.220Z,39.70
2017-07-04T14:47:39.470Z,39.50
2017-07-04T14:50:06.953Z,38.80
2017-07-04T14:52:35.222Z,39.80
2017-07-04T14:55:02.688Z,39.80
2017-07-04T14:57:30.941Z,40.40
2017-07-04T14:59:58.423Z,40.30
2017-07-04T15:02:26.671Z,39.00
2017-07-04T15:04:54.153Z,39.00
2017-07-04T15:07:21.632Z,40.30
2017-07-04T15:09:49.143Z,38.80
2017-07-04T15:12:16.617Z,40.90
2017-07-04T15:14:44.110Z,40.90
2017-07-04T15:17:11.603Z,39.50
2017-07-04T15:19:39.865Z,39.40
2017-07-04T15:22:07.366Z,39.40
2017-07-04T15:24:34.849Z,40.70
2017-07-04T15:27:02.344Z,40.40
2017-07-04T15:29:29.809Z,40.20
2017-07-04T15:31:58.070Z,40.30
2017-07-04T15:34:25.541Z,40.20
2017-07-04T15:36:53.785Z,39.90
2017-07-04T15:39:21.296Z,39.90
2017-07-04T15:41:48.776Z,39.70
2017-07-04T15:44:16.278Z,39.70
2017-07-04T15:46:43.757Z,39.70
2017-07-04T15:49:11.999Z,39.40
2017-07-04T15:51:39.497Z,39.40
2017-07-04T15:54:07.785Z,42.90
2017-07-04T15:56:35.285Z,42.80
2017-07-04T15:59:02.749Z,42.40
2017-07-04T16:01:30.270Z,42.20
2017-07-04T16:03:58.130Z,42.90
2017-07-04T16:06:27.091Z,41.90
2017-07-04T16:08:54.586Z,41.50
2017-07-04T16:11:22.060Z,41.00
2017-07-04T16:13:49.542Z,41.60
2017-07-04T16:16:17.801Z,41.90
2017-07-04T16:18:45.280Z,41.80
2017-07-04T16:21:15.768Z,43.10
2017-07-04T16:23:43.235Z,43.10
2017-07-04T16:26:10.714Z,42.20
2017-07-04T16:28:38.988Z,43.30
2017-07-04T16:31:07.227Z,41.80
2017-07-04T16:33:34.733Z,41.70
2017-07-04T16:36:02.967Z,42.40
2017-07-04T16:38:30.437Z,42.10
2017-07-04T16:40:57.927Z,42.80
2017-07-04T16:43:25.437Z,42.90
2017-07-04T16:45:52.933Z,41.70
2017-07-04T16:48:21.255Z,41.90
2017-07-04T16:50:48.773Z,41.90
2017-07-04T16:53:17.026Z,43.80
2017-07-04T16:55:44.502Z,43.80
2017-07-04T16:58:12.795Z,43.30
2017-07-04T17:00:41.049Z,44.70
2017-07-04T17:03:08.559Z,44.70
2017-07-04T17:05:36.058Z,44.50
2017-07-04T17:08:03.541Z,45.20
2017-07-04T17:10:31.797Z,44.80
2017-07-04T17:12:59.265Z,44.80
2017-07-04T17:15:27.549Z,44.40
2017-07-04T17:17:55.790Z,45.20
2017-07-04T17:20:23.283Z,45.10
2017-07-04T17:22:51.553Z,45.40
2017-07-04T17:25:19.798Z,46.90
2017-07-04T17:27:47.337Z,46.80
2017-07-04T17:30:14.813Z,46.00
2017-07-04T17:32:42.315Z,46.00
2017-07-04T17:35:10.581Z,46.40
2017-07-04T17:37:38.849Z,47.70
2017-07-04T17:40:06.318Z,47.00
2017-07-04T17:42:34.578Z,46.30
2017-07-04T17:45:02.064Z,45.80
2017-07-04T17:47:30.340Z,47.00
2017-07-04T17:49:57.796Z,47.00
2017-07-04T17:52:26.043Z,46.30
2017-07-04T17:54:53.538Z,46.30
2017-07-04T17:57:21.057Z,47.20
2017-07-04T17:59:48.534Z,47.00
2017-07-04T18:02:16.827Z,47.00
2017-07-04T18:04:45.066Z,46.70
2017-07-04T18:07:12.553Z,46.60
2017-07-04T18:09:40.793Z,46.60
2017-07-04T18:12:08.273Z,46.60
2017-07-04T18:14:35.787Z,47.10
2017-07-04T18:17:03.270Z,48.40
2017-07-04T18:19:30.768Z,47.80
2017-07-04T18:21:59.068Z,48.70
2017-07-04T18:24:26.547Z,48.70
2017-07-04T18:26:54.038Z,49.10
2017-07-04T18:29:21.515Z,49.00
2017-07-04T18:31:49.780Z,49.40
2017-07-04T18:34:18.022Z,50.20
2017-07-04T18:36:45.590Z,50.20
2017-07-04T18:39:13.084Z,50.50
2017-07-04T18:41:41.360Z,50.60
2017-07-04T18:44:09.649Z,50.30
2017-07-04T18:46:37.146Z,50.30
2017-07-04T18:49:04.629Z,50.30
2017-07-04T18:51:32.124Z,51.10
2017-07-04T18:53:59.655Z,51.00
2017-07-04T18:56:27.171Z,50.20
2017-07-04T18:58:54.651Z,50.90
2017-07-04T19:01:22.150Z,50.90
2017-07-04T19:03:50.402Z,51.60
2017-07-04T19:06:17.906Z,51.50
2017-07-04T19:08:45.386Z,52.10
2017-07-04T19:11:12.896Z,52.10
2017-07-04T19:13:40.425Z,52.50
2017-07-04T19:16:07.912Z,52.60
2017-07-04T19:18:36.962Z,52.90
2017-07-04T19:21:04.448Z,52.90
2017-07-04T19:23:31.933Z,52.80
2017-07-04T19:26:00.201Z,53.10
2017-07-04T19:28:28.486Z,53.30
2017-07-04T19:30:56.013Z,53.20
2017-07-04T19:33:23.483Z,53.60
2017-07-04T19:35:51.005Z,53.60
2017-07-04T19:38:18.568Z,55.20
2017-07-04T19:40:46.105Z,54.80
2017-07-04T19:43:13.577Z,55.00
2017-07-04T19:45:41.067Z,55.20
2017-07-04T19:48:08.571Z,55.40
2017-07-04T19:50:36.050Z,55.50
2017-07-04T19:53:03.647Z,55.40
2017-07-04T19:55:31.180Z,55.50
2017-07-04T19:57:58.684Z,55.90
2017-07-04T20:00:26.982Z,56.60
2017-07-04T20:02:54.489Z,56.60
2017-07-04T20:05:21.981Z,56.70
2017-07-04T20:07:50.238Z,56.70
2017-07-04T20:10:17.747Z,56.70
2017-07-04T20:12:45.227Z,56.70
2017-07-04T20:15:12.734Z,56.90
2017-07-04T20:17:40.234Z,57.00
2017-07-04T20:20:07.735Z,57.10
2017-07-04T20:22:35.222Z,57.30
2017-07-04T20:25:02.710Z,57.30
2017-07-04T20:27:30.213Z,57.00
2017-07-04T20:29:58.484Z,56.90
2017-07-04T20:32:25.964Z,56.90
2017-07-04T20:34:54.229Z,56.90
2017-07-04T20:37:22.478Z,58.00
2017-07-04T20:39:49.979Z,57.40
2017-07-04T20:42:17.473Z,59.70
2017-07-04T20:44:44.946Z,60.10
2017-07-04T20:47:12.447Z,61.20
2017-07-04T20:49:39.927Z,62.00
2017-07-04T20:52:07.429Z,60.40
2017-07-04T20:54:34.917Z,59.90
2017-07-04T20:57:03.178Z,61.00
2017-07-04T20:59:30.683Z,61.00
2017-07-04T21:01:58.165Z,64.10
2017-07-04T21:04:25.703Z,61.80
2017-07-04T21:06:53.199Z,63.40
2017-07-04T21:09:20.704Z,63.20
2017-07-04T21:11:48.181Z,64.40
2017-07-04T21:14:15.687Z,63.30
2017-07-04T21:16:50.161Z,63.80
2017-07-04T21:19:18.678Z,64.70
2017-07-04T21:21:46.161Z,64.70
2017-07-04T21:24:14.481Z,65.70
2017-07-04T21:26:41.979Z,65.60
2017-07-04T21:29:09.464Z,67.80
2017-07-04T21:31:37.752Z,65.50
2017-07-04T21:34:05.237Z,65.30
2017-07-04T21:36:32.742Z,66.60
2017-07-04T21:39:00.998Z,66.30
2017-07-04T21:41:28.498Z,66.30
2017-07-04T21:43:55.970Z,67.10
2017-07-04T21:46:23.457Z,67.90
2017-07-04T21:48:50.958Z,67.60
2017-07-04T21:51:19.203Z,67.50
2017-07-04T21:53:46.685Z,68.20
2017-07-04T21:56:14.172Z,68.20
2017-07-04T21:58:41.691Z,67.70
2017-07-04T22:01:09.194Z,68.30
2017-07-04T22:03:36.680Z,69.10
2017-07-04T22:06:04.183Z,68.90
2017-07-04T22:08:32.430Z,72.00
2017-07-04T22:10:59.925Z,72.00
2017-07-04T22:13:28.162Z,70.70
2017-07-04T22:15:55.697Z,70.60
2017-07-04T22:18:23.186Z,72.00
2017-07-04T22:20:50.669Z,72.80
2017-07-04T22:23:18.902Z,71.50
2017-07-04T22:25:46.404Z,71.50
2017-07-04T22:28:14.661Z,73.00
2017-07-04T22:30:42.954Z,73.50
2017-07-04T22:33:11.208Z,72.80
2017-07-04T22:35:38.681Z,72.70
2017-07-04T22:38:06.941Z,74.30
2017-07-04T22:40:34.442Z,73.40
2017-07-04T22:43:01.932Z,74.30
2017-07-04T22:45:29.419Z,74.60
2017-07-04T22:47:56.913Z,74.40
2017-07-04T22:50:24.413Z,74.70
2017-07-04T22:52:51.917Z,75.60
2017-07-04T22:55:20.161Z,77.40
2017-07-04T22:57:47.658Z,77.40
2017-07-04T23:00:15.157Z,78.80
2017-07-04T23:02:42.635Z,76.70
2017-07-04T23:05:10.136Z,80.40
2017-07-04T23:07:37.619Z,79.00
2017-07-04T23:10:05.117Z,77.70
2017-07-04T23:12:32.576Z,77.70
2017-07-04T23:15:00.051Z,79.00
2017-07-04T23:17:28.320Z,79.70
2017-07-04T23:19:55.810Z,78.80
2017-07-04T23:22:23.298Z,78.50
2017-07-04T23:24:50.771Z,80.20
2017-07-04T23:27:18.265Z,79.80
2017-07-04T23:29:46.497Z,80.50
2017-07-04T23:32:13.996Z,80.10
2017-07-04T23:34:42.226Z,80.80
2017-07-04T23:37:09.701Z,80.70
2017-07-04T23:39:37.196Z,81.10
2017-07-04T23:42:05.428Z,81.10
2017-07-04T23:44:32.930Z,81.00
2017-07-04T23:47:01.182Z,81.90
2017-07-04T23:49:28.664Z,81.80
2017-07-04T23:51:56.934Z,81.70
2017-07-04T23:54:25.258Z,84.10
2017-07-04T23:56:52.759Z,84.10
2017-07-04T23:59:20.238Z,84.00
